createdAt,value
2019-01-30T00:00:32.529Z,83.15
2019-01-30T00:03:01.165Z,83.71
2019-01-30T00:05:29.738Z,83.53
2019-01-30T00:07:58.093Z,83.40
2019-01-30T00:10:26.480Z,83.35
2019-01-30T00:12:54.854Z,83.53
2019-01-30T00:15:23.239Z,84.16
2019-01-30T00:17:51.673Z,84.37
2019-01-30T00:20:20.068Z,83.68
2019-01-30T00:22:48.465Z,83.66
2019-01-30T00:25:16.895Z,84.71
2019-01-30T00:27:45.379Z,85.40
2019-01-30T00:30:25.673Z,86.12
2019-01-30T00:32:54.232Z,86.46
2019-01-30T00:35:22.614Z,86.75
2019-01-30T00:37:50.990Z,87.67
2019-01-30T00:40:21.416Z,88.20
2019-01-30T00:42:49.865Z,88.03
2019-01-30T00:45:21.720Z,88.98
2019-01-30T00:47:50.258Z,88.77
2019-01-30T00:50:21.252Z,88.60
2019-01-30T00:52:49.629Z,88.95
2019-01-30T00:55:18.089Z,88.25
2019-01-30T00:57:46.466Z,87.77
2019-01-30T01:00:17.792Z,87.20
2019-01-30T01:02:46.408Z,86.72
2019-01-30T01:05:16.535Z,86.18
2019-01-30T01:07:45.253Z,86.18
2019-01-30T01:10:16.500Z,86.15
2019-01-30T01:12:45.147Z,87.31
2019-01-30T01:15:15.572Z,88.83
2019-01-30T01:17:44.417Z,88.94
2019-01-30T01:20:15.236Z,89.11
2019-01-30T01:22:43.959Z,89.20
2019-01-30T01:25:52.253Z,89.71
2019-01-30T01:28:20.631Z,90.09
2019-01-30T01:30:49.020Z,89.94
2019-01-30T01:33:17.396Z,89.89
2019-01-30T01:35:45.782Z,89.86
2019-01-30T01:38:33.409Z,89.45
2019-01-30T01:43:55.776Z,89.30
2019-01-30T01:46:24.165Z,89.07
2019-01-30T01:49:11.656Z,88.52
2019-01-30T01:51:40.048Z,88.65
2019-01-30T01:54:08.428Z,88.60
2019-01-30T01:56:55.948Z,88.40
2019-01-30T01:59:24.324Z,89.43
2019-01-30T02:02:11.963Z,89.33
2019-01-30T02:04:40.352Z,88.77
2019-01-30T02:07:27.987Z,88.62
2019-01-30T02:13:23.724Z,88.66
2019-01-30T02:15:52.100Z,88.77
2019-01-30T02:20:54.953Z,89.61
2019-01-30T02:23:42.584Z,88.78
2019-01-30T02:26:10.971Z,88.30
2019-01-30T02:28:39.350Z,88.28
2019-01-30T02:33:55.176Z,88.07
2019-01-30T02:37:01.939Z,87.82
2019-01-30T02:39:30.312Z,88.37
2019-01-30T02:42:17.941Z,88.52
2019-01-30T02:44:46.310Z,88.13
2019-01-30T02:49:48.696Z,88.11
2019-01-30T02:52:17.085Z,88.31
2019-01-30T02:55:04.705Z,88.58
2019-01-30T02:57:52.332Z,88.38
2019-01-30T03:01:00.618Z,87.93
2019-01-30T03:03:48.117Z,88.59
2019-01-30T03:06:16.490Z,88.26
2019-01-30T03:09:04.118Z,88.11
2019-01-30T03:11:51.740Z,88.24
2019-01-30T03:14:20.121Z,88.97
2019-01-30T03:16:48.492Z,89.32
2019-01-30T03:19:36.002Z,89.39
2019-01-30T03:22:04.377Z,88.92
2019-01-30T03:24:51.874Z,89.02
2019-01-30T03:27:20.245Z,89.32
2019-01-30T03:30:07.744Z,89.72
2019-01-30T03:32:36.117Z,89.46
2019-01-30T03:35:44.407Z,89.81
2019-01-30T03:38:12.792Z,89.64
2019-01-30T03:41:00.285Z,89.25
2019-01-30T03:43:28.665Z,88.98
2019-01-30T03:46:16.381Z,88.33
2019-01-30T03:49:04.176Z,88.21
2019-01-30T03:51:32.550Z,88.27
2019-01-30T03:56:57.247Z,87.99
2019-01-30T03:59:25.658Z,86.93
2019-01-30T04:01:54.013Z,87.22
2019-01-30T04:04:22.393Z,87.72
2019-01-30T04:07:10.102Z,87.75
2019-01-30T04:09:57.809Z,87.42
2019-01-30T04:12:26.186Z,87.52
2019-01-30T04:15:14.099Z,87.60
2019-01-30T04:17:42.459Z,87.45
2019-01-30T04:20:50.746Z,87.79
2019-01-30T04:23:38.249Z,88.03
2019-01-30T04:26:25.735Z,87.83
2019-01-30T04:28:54.123Z,88.15
2019-01-30T04:31:22.496Z,87.78
2019-01-30T04:33:50.879Z,87.31
2019-01-30T04:36:38.368Z,87.74
2019-01-30T04:39:46.663Z,88.53
2019-01-30T04:42:15.030Z,88.52
2019-01-30T04:45:02.660Z,89.43
2019-01-30T04:47:31.035Z,88.80
2019-01-30T04:50:18.771Z,88.58
2019-01-30T04:52:47.115Z,89.02
2019-01-30T04:55:34.842Z,88.50
2019-01-30T04:58:03.221Z,88.32
2019-01-30T05:00:31.608Z,87.98
2019-01-30T05:03:19.099Z,88.39
2019-01-30T05:05:47.478Z,88.89
2019-01-30T05:08:15.853Z,88.55
2019-01-30T05:10:44.243Z,88.16
2019-01-30T05:13:31.720Z,87.95
2019-01-30T05:16:00.101Z,87.68
2019-01-30T05:21:15.922Z,87.78
2019-01-30T05:23:44.302Z,87.72
2019-01-30T05:26:31.798Z,88.00
2019-01-30T05:29:00.267Z,88.03
2019-01-30T05:31:28.644Z,87.72
2019-01-30T05:36:44.465Z,87.19
2019-01-30T05:39:12.841Z,87.10
2019-01-30T05:41:41.218Z,86.94
2019-01-30T05:46:57.037Z,87.26
2019-01-30T05:49:44.524Z,87.25
2019-01-30T05:52:12.905Z,87.43
2019-01-30T05:55:00.528Z,87.51
2019-01-30T05:57:28.909Z,86.95
2019-01-30T05:59:57.287Z,87.17
2019-01-30T06:02:25.670Z,87.30
2019-01-30T06:05:13.173Z,87.86
2019-01-30T06:08:00.662Z,87.88
2019-01-30T06:10:48.376Z,87.80
2019-01-30T06:13:35.863Z,87.46
2019-01-30T06:18:59.052Z,87.88
2019-01-30T06:21:27.434Z,87.56
2019-01-30T06:24:15.525Z,87.20
2019-01-30T06:26:47.604Z,87.44
2019-01-30T06:29:17.557Z,87.45
2019-01-30T06:31:46.112Z,87.55
2019-01-30T06:34:16.189Z,88.12
2019-01-30T06:36:47.610Z,88.33
2019-01-30T06:39:21.527Z,88.12
2019-01-30T06:41:53.117Z,88.03
2019-01-30T06:44:24.857Z,88.08
2019-01-30T06:46:51.652Z,88.23
2019-01-30T06:49:21.788Z,87.41
2019-01-30T06:51:51.766Z,86.67
2019-01-30T06:54:24.932Z,86.16
2019-01-30T06:56:53.636Z,86.10
2019-01-30T06:59:22.120Z,86.54
2019-01-30T07:01:52.387Z,86.87
2019-01-30T07:04:22.250Z,86.76
2019-01-30T07:10:00.386Z,85.97
2019-01-30T07:12:31.230Z,86.09
2019-01-30T07:15:01.879Z,86.61
2019-01-30T07:17:32.594Z,86.54
2019-01-30T07:20:08.393Z,86.53
2019-01-30T07:22:40.728Z,86.43
2019-01-30T07:25:12.464Z,86.16
2019-01-30T07:27:45.030Z,85.89
2019-01-30T07:30:20.938Z,85.96
2019-01-30T07:32:51.175Z,86.50
2019-01-30T07:35:21.890Z,86.45
2019-01-30T07:38:00.250Z,86.22
2019-01-30T07:40:33.289Z,86.07
2019-01-30T07:43:01.909Z,85.69
2019-01-30T07:45:32.428Z,85.41
2019-01-30T07:48:07.202Z,85.68
2019-01-30T07:50:36.491Z,85.38
2019-01-30T07:53:11.260Z,85.42
2019-01-30T07:55:39.857Z,85.29
2019-01-30T07:58:14.781Z,85.00
2019-01-30T08:00:45.605Z,84.74
2019-01-30T08:03:17.493Z,85.21
2019-01-30T08:05:50.353Z,84.80
2019-01-30T08:08:19.796Z,84.71
2019-01-30T08:10:52.818Z,84.71
2019-01-30T08:13:21.451Z,84.49
2019-01-30T08:15:51.688Z,84.06
2019-01-30T08:18:20.189Z,83.91
2019-01-30T08:20:50.373Z,83.83
2019-01-30T08:23:18.837Z,83.84
2019-01-30T08:25:47.699Z,84.49
2019-01-30T08:28:16.598Z,84.81
2019-01-30T08:30:45.328Z,84.62
2019-01-30T08:33:13.855Z,84.50
2019-01-30T08:35:43.358Z,84.41
2019-01-30T08:38:11.952Z,84.33
2019-01-30T08:40:40.605Z,84.69
2019-01-30T08:43:09.976Z,84.43
2019-01-30T08:45:38.684Z,84.35
2019-01-30T08:48:07.398Z,84.46
2019-01-30T08:50:35.907Z,84.44
2019-01-30T08:53:04.418Z,84.76
2019-01-30T08:55:32.975Z,84.81
2019-01-30T08:58:01.487Z,85.25
2019-01-30T09:00:30.813Z,85.09
2019-01-30T09:02:59.308Z,85.08
2019-01-30T09:05:28.076Z,85.30
2019-01-30T09:07:56.578Z,85.10
2019-01-30T09:10:29.796Z,85.07
2019-01-30T09:12:58.378Z,84.64
2019-01-30T09:15:30.701Z,84.45
2019-01-30T09:17:59.320Z,84.49
2019-01-30T09:20:28.076Z,84.75
2019-01-30T09:22:57.079Z,85.14
2019-01-30T09:25:30.074Z,85.08
2019-01-30T09:27:59.818Z,84.99
2019-01-30T09:30:30.531Z,85.21
2019-01-30T09:32:59.060Z,85.27
2019-01-30T09:35:27.584Z,85.15
2019-01-30T09:37:56.186Z,84.67
2019-01-30T09:40:25.091Z,84.92
2019-01-30T09:42:54.131Z,84.28
2019-01-30T09:45:23.774Z,84.20
2019-01-30T09:47:52.272Z,84.20
2019-01-30T09:50:23.065Z,83.93
2019-01-30T09:52:52.677Z,83.89
2019-01-30T09:55:21.185Z,84.09
2019-01-30T09:57:49.960Z,84.03
2019-01-30T10:00:20.610Z,84.14
2019-01-30T10:02:49.094Z,83.80
2019-01-30T10:05:17.859Z,83.58
2019-01-30T10:07:46.703Z,82.99
2019-01-30T10:10:26.574Z,83.12
2019-01-30T10:12:55.115Z,82.51
2019-01-30T10:15:28.985Z,82.26
2019-01-30T10:17:57.577Z,82.30
2019-01-30T10:20:33.027Z,82.16
2019-01-30T10:23:04.192Z,82.03
2019-01-30T10:25:35.701Z,81.82
2019-01-30T10:28:16.809Z,81.29
2019-01-30T10:30:50.176Z,81.17
2019-01-30T10:33:58.454Z,81.86
2019-01-30T10:36:46.077Z,81.25
2019-01-30T10:39:14.451Z,80.15
2019-01-30T10:42:02.096Z,80.13
2019-01-30T10:44:49.726Z,80.91
2019-01-30T10:47:37.356Z,80.39
2019-01-30T10:50:45.646Z,80.35
2019-01-30T10:53:33.358Z,79.62
2019-01-30T10:58:49.180Z,79.15
2019-01-30T11:01:17.549Z,78.83
2019-01-30T11:03:45.919Z,78.50
2019-01-30T11:06:33.657Z,78.63
2019-01-30T11:09:02.019Z,78.01
2019-01-30T11:11:49.644Z,78.25
2019-01-30T11:14:18.015Z,78.09
2019-01-30T11:16:46.397Z,77.32
2019-01-30T11:19:14.767Z,77.34
2019-01-30T11:21:50.748Z,77.13
2019-01-30T11:24:19.116Z,77.15
2019-01-30T11:26:47.484Z,76.46
2019-01-30T11:29:15.867Z,76.35
2019-01-30T11:31:44.234Z,75.99
2019-01-30T11:34:12.615Z,75.38
2019-01-30T11:36:40.984Z,73.71
2019-01-30T11:39:09.520Z,73.21
2019-01-30T11:41:37.887Z,73.40
2019-01-30T11:44:06.262Z,74.66
2019-01-30T11:46:34.631Z,72.96
2019-01-30T11:49:03.005Z,73.36
2019-01-30T11:51:31.371Z,72.86
2019-01-30T11:53:59.769Z,72.76
2019-01-30T11:56:28.178Z,72.08
2019-01-30T11:58:56.573Z,71.70
2019-01-30T12:01:24.959Z,71.63
2019-01-30T12:03:53.333Z,71.39
2019-01-30T12:06:21.731Z,70.50
2019-01-30T12:08:50.123Z,72.08
2019-01-30T12:11:18.493Z,71.30
2019-01-30T12:13:46.879Z,70.86
2019-01-30T12:16:15.258Z,69.97
2019-01-30T12:18:43.655Z,70.64
2019-01-30T12:21:12.035Z,71.23
2019-01-30T12:23:40.421Z,71.11
2019-01-30T12:26:08.808Z,70.24
2019-01-30T12:28:37.246Z,70.13
2019-01-30T12:31:05.628Z,70.20
2019-01-30T12:33:34.025Z,71.05
2019-01-30T12:36:02.418Z,70.46
2019-01-30T12:38:30.814Z,69.58
2019-01-30T12:40:59.202Z,70.56
2019-01-30T12:43:27.648Z,69.80
2019-01-30T12:45:56.035Z,69.69
2019-01-30T12:48:24.412Z,70.12
2019-01-30T12:50:52.809Z,70.80
2019-01-30T12:53:21.186Z,70.88
2019-01-30T12:55:49.581Z,70.58
2019-01-30T12:58:17.974Z,70.41
2019-01-30T13:00:46.743Z,70.11
2019-01-30T13:03:15.239Z,70.27
2019-01-30T13:05:43.613Z,71.21
2019-01-30T13:08:11.988Z,70.93
2019-01-30T13:10:40.416Z,71.38
2019-01-30T13:13:08.811Z,71.64
2019-01-30T13:15:37.472Z,71.61
2019-01-30T13:18:17.466Z,71.00
2019-01-30T13:20:36.363Z,71.56
2019-01-30T13:23:04.836Z,71.10
2019-01-30T13:25:33.488Z,70.19
2019-01-30T13:28:01.867Z,70.67
2019-01-30T13:30:32.768Z,69.71
2019-01-30T13:33:01.519Z,69.53
2019-01-30T13:35:30.015Z,69.79
2019-01-30T13:37:58.400Z,69.46
2019-01-30T13:40:29.576Z,69.41
2019-01-30T13:42:58.156Z,69.55
2019-01-30T13:45:27.314Z,68.73
2019-01-30T13:47:56.039Z,69.50
2019-01-30T13:50:26.354Z,69.33
2019-01-30T13:52:54.757Z,69.01
2019-01-30T13:55:23.449Z,69.23
2019-01-30T13:57:51.829Z,69.05
2019-01-30T14:00:28.899Z,69.54
2019-01-30T14:02:57.283Z,69.00
2019-01-30T14:05:25.654Z,69.14
2019-01-30T14:07:54.452Z,69.34
2019-01-30T14:10:23.091Z,70.01
2019-01-30T14:12:51.961Z,68.88
2019-01-30T14:15:25.759Z,69.53
2019-01-30T14:17:54.152Z,69.05
2019-01-30T14:20:22.585Z,69.29
2019-01-30T14:22:51.037Z,68.87
2019-01-30T14:25:19.489Z,69.63
2019-01-30T14:27:47.974Z,69.15
2019-01-30T14:30:28.318Z,69.58
2019-01-30T14:32:56.677Z,69.61
2019-01-30T14:35:26.504Z,70.11
2019-01-30T14:37:54.907Z,70.15
2019-01-30T14:40:23.707Z,70.88
2019-01-30T14:42:52.265Z,70.95
2019-01-30T14:45:21.485Z,71.20
2019-01-30T14:47:51.201Z,71.30
2019-01-30T14:50:27.148Z,71.67
2019-01-30T14:52:55.821Z,71.21
2019-01-30T14:55:24.653Z,71.93
2019-01-30T14:57:54.265Z,71.92
2019-01-30T15:00:28.585Z,72.25
2019-01-30T15:02:57.076Z,71.92
2019-01-30T15:05:26.642Z,71.84
2019-01-30T15:07:55.126Z,71.66
2019-01-30T15:10:25.411Z,72.70
2019-01-30T15:12:54.121Z,73.37
2019-01-30T15:15:27.362Z,73.51
2019-01-30T15:17:55.701Z,73.42
2019-01-30T15:20:29.435Z,73.72
2019-01-30T15:22:57.948Z,73.65
2019-01-30T15:25:27.180Z,74.11
2019-01-30T15:27:56.102Z,74.64
2019-01-30T15:30:30.135Z,75.05
2019-01-30T15:32:58.511Z,75.61
2019-01-30T15:35:33.626Z,76.49
2019-01-30T15:37:56.986Z,76.86
2019-01-30T15:40:30.258Z,77.32
2019-01-30T15:42:58.636Z,77.92
2019-01-30T15:45:27.072Z,79.04
2019-01-30T15:47:55.451Z,80.07
2019-01-30T15:50:26.265Z,80.35
2019-01-30T15:52:55.478Z,81.33
2019-01-30T15:55:23.853Z,81.86
2019-01-30T15:57:55.205Z,82.69
2019-01-30T16:00:29.610Z,83.07
2019-01-30T16:02:57.964Z,83.28
2019-01-30T16:05:26.379Z,83.28
2019-01-30T16:07:54.759Z,82.81
2019-01-30T16:10:23.146Z,83.30
2019-01-30T16:12:51.633Z,83.21
2019-01-30T16:15:23.386Z,83.73
2019-01-30T16:17:51.882Z,83.86
2019-01-30T16:20:20.416Z,83.79
2019-01-30T16:22:48.932Z,83.16
2019-01-30T16:25:19.051Z,83.22
2019-01-30T16:27:47.636Z,83.24
2019-01-30T16:30:21.323Z,84.20
2019-01-30T16:32:49.702Z,84.18
2019-01-30T16:35:21.308Z,84.50
2019-01-30T16:37:49.766Z,84.30
2019-01-30T16:40:18.531Z,84.83
2019-01-30T16:42:46.887Z,85.10
2019-01-30T16:45:18.306Z,86.07
2019-01-30T16:47:46.685Z,86.21
2019-01-30T16:50:16.697Z,86.20
2019-01-30T16:52:45.239Z,86.20
2019-01-30T16:55:16.756Z,85.79
2019-01-30T16:57:45.466Z,85.85
2019-01-30T17:00:25.823Z,86.18
2019-01-30T17:02:54.616Z,85.98
2019-01-30T17:05:23.272Z,86.00
2019-01-30T17:07:51.811Z,85.77
2019-01-30T17:10:20.426Z,86.23
2019-01-30T17:12:48.795Z,86.52
2019-01-30T17:15:28.914Z,86.45
2019-01-30T17:17:57.278Z,86.60
2019-01-30T17:20:27.884Z,86.53
2019-01-30T17:22:56.253Z,86.40
2019-01-30T17:26:04.541Z,85.62
2019-01-30T17:31:46.664Z,86.22
2019-01-30T17:34:34.294Z,85.34
2019-01-30T17:37:02.662Z,85.58
2019-01-30T17:39:31.047Z,85.40
2019-01-30T17:45:44.572Z,85.54
2019-01-30T17:48:52.875Z,85.41
2019-01-30T17:51:21.315Z,85.09
2019-01-30T17:54:08.815Z,85.15
2019-01-30T17:56:56.432Z,85.19
2019-01-30T18:01:59.187Z,84.54
2019-01-30T18:04:46.913Z,84.30
2019-01-30T18:07:15.286Z,84.52
2019-01-30T18:10:02.786Z,84.25
2019-01-30T18:15:18.593Z,83.64
2019-01-30T18:17:46.969Z,83.94
2019-01-30T18:20:55.256Z,83.75
2019-01-30T18:23:42.744Z,83.98
2019-01-30T18:26:11.116Z,84.60
2019-01-30T18:28:39.484Z,84.80
2019-01-30T18:31:26.984Z,85.17
2019-01-30T18:33:55.390Z,84.97
2019-01-30T18:36:23.772Z,84.08
2019-01-30T18:41:39.587Z,83.71
2019-01-30T18:47:20.379Z,82.65
2019-01-30T18:50:08.026Z,82.82
2019-01-30T18:52:36.401Z,82.96
2019-01-30T18:55:44.697Z,82.54
2019-01-30T18:58:13.067Z,82.06
2019-01-30T19:01:21.369Z,81.60
2019-01-30T19:04:08.855Z,81.45
2019-01-30T19:06:37.234Z,81.46
2019-01-30T19:09:45.523Z,81.47
2019-01-30T19:12:13.899Z,81.09
2019-01-30T19:15:01.381Z,81.04
2019-01-30T19:17:29.789Z,80.12
2019-01-30T19:19:58.176Z,79.93
2019-01-30T19:22:26.573Z,79.82
2019-01-30T19:28:01.627Z,79.79
2019-01-30T19:31:09.924Z,79.82
2019-01-30T19:33:57.408Z,79.91
2019-01-30T19:36:25.790Z,80.31
2019-01-30T19:39:13.282Z,79.69
2019-01-30T19:42:00.822Z,79.33
2019-01-30T19:44:48.506Z,79.69
2019-01-30T19:47:36.135Z,79.72
2019-01-30T19:50:44.425Z,79.50
2019-01-30T19:53:12.813Z,79.35
2019-01-30T19:55:41.300Z,78.97
2019-01-30T19:58:12.155Z,78.89
2019-01-30T20:01:19.696Z,79.03
2019-01-30T20:03:48.070Z,78.34
2019-01-30T20:06:16.524Z,78.23
2019-01-30T20:08:44.915Z,78.50
2019-01-30T20:11:13.366Z,78.35
2019-01-30T20:14:01.043Z,78.29
2019-01-30T20:16:48.735Z,78.42
2019-01-30T20:19:36.457Z,78.43
2019-01-30T20:22:44.747Z,78.68
2019-01-30T20:25:53.138Z,79.28
2019-01-30T20:28:21.592Z,79.73
2019-01-30T20:30:49.964Z,81.16
2019-01-30T20:33:37.749Z,81.81
2019-01-30T20:36:46.040Z,82.39
2019-01-30T20:39:33.604Z,82.43
2019-01-30T20:42:21.234Z,82.61
2019-01-30T20:47:56.189Z,82.22
2019-01-30T20:50:43.906Z,82.10
2019-01-30T20:53:31.535Z,82.28
2019-01-30T20:55:59.940Z,81.51
2019-01-30T20:58:47.434Z,80.92
2019-01-30T21:04:03.246Z,80.44
2019-01-30T21:06:31.675Z,80.11
2019-01-30T21:09:00.048Z,79.83
2019-01-30T21:11:28.424Z,79.51
2019-01-30T21:13:56.805Z,79.39
2019-01-30T21:16:25.171Z,79.53
2019-01-30T21:18:53.550Z,79.44
2019-01-30T21:21:41.176Z,79.22
2019-01-30T21:24:09.584Z,79.49
2019-01-30T21:26:37.961Z,79.79
2019-01-30T21:31:59.512Z,80.52
2019-01-30T21:34:47.187Z,80.38
2019-01-30T21:37:34.681Z,80.89
2019-01-30T21:40:42.967Z,81.23
2019-01-30T21:43:11.350Z,82.14
2019-01-30T21:51:20.246Z,82.66
2019-01-30T21:54:07.990Z,82.71
2019-01-30T21:56:57.214Z,82.49
2019-01-30T21:59:25.611Z,82.23
2019-01-30T22:02:13.317Z,82.73
2019-01-30T22:05:00.816Z,82.95
2019-01-30T22:08:00.044Z,83.97
2019-01-30T22:10:37.770Z,83.77
2019-01-30T22:13:06.159Z,84.34
2019-01-30T22:15:53.782Z,84.53
2019-01-30T22:18:22.177Z,84.68
2019-01-30T22:20:50.559Z,85.11
2019-01-30T22:23:18.951Z,85.66
2019-01-30T22:26:06.679Z,85.77
2019-01-30T22:28:54.314Z,85.80
2019-01-30T22:31:41.936Z,86.14
2019-01-30T22:34:13.293Z,86.66
2019-01-30T22:36:59.531Z,87.09
2019-01-30T22:39:47.164Z,87.03
2019-01-30T22:42:34.860Z,86.10
2019-01-30T22:47:57.567Z,85.43
2019-01-30T22:53:00.249Z,85.27
2019-01-30T22:55:47.878Z,85.08
2019-01-30T23:01:42.287Z,85.00
2019-01-30T23:04:50.648Z,84.64
2019-01-30T23:07:58.939Z,85.27
2019-01-30T23:11:05.934Z,85.16
2019-01-30T23:13:54.442Z,85.93
2019-01-30T23:17:01.410Z,86.10
2019-01-30T23:20:09.764Z,86.82
2019-01-30T23:23:18.123Z,86.97
2019-01-30T23:26:26.410Z,86.88
2019-01-30T23:29:34.768Z,86.36
2019-01-30T23:32:43.063Z,85.94
2019-01-30T23:35:51.423Z,86.37
2019-01-30T23:38:58.441Z,86.01
2019-01-30T23:42:05.424Z,85.99
2019-01-30T23:45:13.718Z,85.48
2019-01-30T23:48:22.008Z,84.72
2019-01-30T23:51:28.982Z,83.98
2019-01-30T23:54:35.964Z,83.63
2019-01-30T23:57:42.926Z,84.05
